sensor_id;sensor_type;location;lat;lon;timestamp;temperature;humidity
68378;DHT22;55322;48.146;11.516;2022-11-15T00:01:18;5.32;87.87
68378;DHT22;55322;48.146;11.516;2022-11-15T00:03:43;5.25;88.13
68378;DHT22;55322;48.146;11.516;2022-11-15T00:06:09;5.17;88.59
68378;DHT22;55322;48.146;11.516;2022-11-15T00:08:35;5.04;89.29
68378;DHT22;55322;48.146;11.516;2022-11-15T00:11:02;5.07;88.85
68378;DHT22;55322;48.146;11.516;2022-11-15T00:13:28;5.05;89.25
68378;DHT22;55322;48.146;11.516;2022-11-15T00:15:57;4.97;89.54
68378;DHT22;55322;48.146;11.516;2022-11-15T00:18:23;5.03;88.86
68378;DHT22;55322;48.146;11.516;2022-11-15T00:20:48;4.93;89.39
68378;DHT22;55322;48.146;11.516;2022-11-15T00:23:14;4.84;89.73
68378;DHT22;55322;48.146;11.516;2022-11-15T00:25:39;4.74;89.52
68378;DHT22;55322;48.146;11.516;2022-11-15T00:28:04;4.66;88.95
68378;DHT22;55322;48.146;11.516;2022-11-15T00:30:30;4.60;89.35
68378;DHT22;55322;48.146;11.516;2022-11-15T00:32:56;4.53;89.67
68378;DHT22;55322;48.146;11.516;2022-11-15T00:35:21;4.48;89.65
68378;DHT22;55322;48.146;11.516;2022-11-15T00:37:47;4.42;89.79
68378;DHT22;55322;48.146;11.516;2022-11-15T00:40:13;4.40;90.38
68378;DHT22;55322;48.146;11.516;2022-11-15T00:42:39;4.35;90.48
68378;DHT22;55322;48.146;11.516;2022-11-15T00:45:04;4.48;90.37
68378;DHT22;55322;48.146;11.516;2022-11-15T00:47:30;4.43;90.41
68378;DHT22;55322;48.146;11.516;2022-11-15T00:49:55;4.43;90.49
68378;DHT22;55322;48.146;11.516;2022-11-15T00:52:21;4.39;90.79
68378;DHT22;55322;48.146;11.516;2022-11-15T00:54:46;4.38;90.74
68378;DHT22;55322;48.146;11.516;2022-11-15T00:57:11;4.33;90.72
68378;DHT22;55322;48.146;11.516;2022-11-15T00:59:36;4.39;90.39
68378;DHT22;55322;48.146;11.516;2022-11-15T01:02:02;4.29;90.68
68378;DHT22;55322;48.146;11.516;2022-11-15T01:04:27;4.42;89.92
68378;DHT22;55322;48.146;11.516;2022-11-15T01:06:53;4.49;89.89
68378;DHT22;55322;48.146;11.516;2022-11-15T01:09:18;4.59;89.04
68378;DHT22;55322;48.146;11.516;2022-11-15T01:11:43;4.95;87.35
68378;DHT22;55322;48.146;11.516;2022-11-15T01:14:09;5.13;86.44
68378;DHT22;55322;48.146;11.516;2022-11-15T01:16:34;5.23;85.76
68378;DHT22;55322;48.146;11.516;2022-11-15T01:18:59;5.20;85.71
68378;DHT22;55322;48.146;11.516;2022-11-15T01:21:25;5.21;86.03
68378;DHT22;55322;48.146;11.516;2022-11-15T01:23:54;5.17;86.07
68378;DHT22;55322;48.146;11.516;2022-11-15T01:26:20;5.14;86.02
68378;DHT22;55322;48.146;11.516;2022-11-15T01:28:46;5.11;86.01
68378;DHT22;55322;48.146;11.516;2022-11-15T01:31:14;5.13;85.78
68378;DHT22;55322;48.146;11.516;2022-11-15T01:33:40;5.05;86.08
68378;DHT22;55322;48.146;11.516;2022-11-15T01:36:07;4.98;86.18
68378;DHT22;55322;48.146;11.516;2022-11-15T01:38:34;4.88;86.21
68378;DHT22;55322;48.146;11.516;2022-11-15T01:40:59;4.79;86.54
68378;DHT22;55322;48.146;11.516;2022-11-15T01:43:30;4.70;87.12
68378;DHT22;55322;48.146;11.516;2022-11-15T01:46:00;4.66;87.29
68378;DHT22;55322;48.146;11.516;2022-11-15T01:48:32;4.52;88.11
68378;DHT22;55322;48.146;11.516;2022-11-15T01:51:01;4.52;88.14
68378;DHT22;55322;48.146;11.516;2022-11-15T01:53:28;4.39;88.64
68378;DHT22;55322;48.146;11.516;2022-11-15T01:55:54;4.28;89.34
68378;DHT22;55322;48.146;11.516;2022-11-15T01:58:19;3.99;90.49
68378;DHT22;55322;48.146;11.516;2022-11-15T02:00:45;3.87;90.61
68378;DHT22;55322;48.146;11.516;2022-11-15T02:03:10;3.73;91.16
68378;DHT22;55322;48.146;11.516;2022-11-15T02:05:36;3.54;91.67
68378;DHT22;55322;48.146;11.516;2022-11-15T02:08:02;3.55;91.63
68378;DHT22;55322;48.146;11.516;2022-11-15T02:10:27;3.68;91.27
68378;DHT22;55322;48.146;11.516;2022-11-15T02:12:53;3.68;91.36
68378;DHT22;55322;48.146;11.516;2022-11-15T02:15:19;3.61;91.47
68378;DHT22;55322;48.146;11.516;2022-11-15T02:20:54;3.35;92.64
68378;DHT22;55322;48.146;11.516;2022-11-15T02:23:31;3.28;92.72
68378;DHT22;55322;48.146;11.516;2022-11-15T02:34:29;2.99;93.63
68378;DHT22;55322;48.146;11.516;2022-11-15T02:42:24;2.79;94.09
68378;DHT22;55322;48.146;11.516;2022-11-15T02:45:13;2.80;94.13
68378;DHT22;55322;48.146;11.516;2022-11-15T02:47:44;2.85;93.90
68378;DHT22;55322;48.146;11.516;2022-11-15T02:50:13;2.80;94.64
68378;DHT22;55322;48.146;11.516;2022-11-15T02:52:40;2.85;94.04
68378;DHT22;55322;48.146;11.516;2022-11-15T02:55:44;2.80;93.68
68378;DHT22;55322;48.146;11.516;2022-11-15T03:01:26;2.68;93.43
68378;DHT22;55322;48.146;11.516;2022-11-15T03:04:02;2.62;93.90
68378;DHT22;55322;48.146;11.516;2022-11-15T03:06:45;2.52;95.19
68378;DHT22;55322;48.146;11.516;2022-11-15T03:11:46;3.03;93.57
68378;DHT22;55322;48.146;11.516;2022-11-15T03:14:22;3.07;92.61
68378;DHT22;55322;48.146;11.516;2022-11-15T03:22:07;2.89;92.70
68378;DHT22;55322;48.146;11.516;2022-11-15T03:24:36;2.86;93.29
68378;DHT22;55322;48.146;11.516;2022-11-15T03:27:05;2.82;93.36
68378;DHT22;55322;48.146;11.516;2022-11-15T03:29:34;2.82;93.22
68378;DHT22;55322;48.146;11.516;2022-11-15T03:32:04;2.75;93.24
68378;DHT22;55322;48.146;11.516;2022-11-15T03:34:44;2.69;93.76
68378;DHT22;55322;48.146;11.516;2022-11-15T03:37:14;2.63;93.71
68378;DHT22;55322;48.146;11.516;2022-11-15T03:39:40;2.62;93.73
68378;DHT22;55322;48.146;11.516;2022-11-15T03:44:45;2.58;94.33
68378;DHT22;55322;48.146;11.516;2022-11-15T03:47:35;2.53;95.29
68378;DHT22;55322;48.146;11.516;2022-11-15T03:50:09;2.44;95.52
68378;DHT22;55322;48.146;11.516;2022-11-15T03:52:35;2.39;95.61
68378;DHT22;55322;48.146;11.516;2022-11-15T03:55:03;2.38;95.85
68378;DHT22;55322;48.146;11.516;2022-11-15T03:57:28;2.39;95.73
68378;DHT22;55322;48.146;11.516;2022-11-15T03:59:54;2.42;95.41
68378;DHT22;55322;48.146;11.516;2022-11-15T04:02:19;2.39;95.27
68378;DHT22;55322;48.146;11.516;2022-11-15T04:04:45;2.28;95.54
68378;DHT22;55322;48.146;11.516;2022-11-15T04:07:10;2.34;95.52
68378;DHT22;55322;48.146;11.516;2022-11-15T04:09:35;2.37;95.64
68378;DHT22;55322;48.146;11.516;2022-11-15T04:12:21;2.41;95.48
68378;DHT22;55322;48.146;11.516;2022-11-15T04:14:56;2.32;95.68
68378;DHT22;55322;48.146;11.516;2022-11-15T04:17:35;2.28;95.57
68378;DHT22;55322;48.146;11.516;2022-11-15T04:20:03;2.31;95.22
68378;DHT22;55322;48.146;11.516;2022-11-15T04:22:47;2.29;94.96
68378;DHT22;55322;48.146;11.516;2022-11-15T04:25:31;2.25;94.85
68378;DHT22;55322;48.146;11.516;2022-11-15T04:27:57;2.24;94.93
68378;DHT22;55322;48.146;11.516;2022-11-15T04:30:22;2.21;95.28
68378;DHT22;55322;48.146;11.516;2022-11-15T04:32:47;2.24;95.37
68378;DHT22;55322;48.146;11.516;2022-11-15T04:35:12;2.25;95.38
68378;DHT22;55322;48.146;11.516;2022-11-15T04:37:38;2.25;95.09
68378;DHT22;55322;48.146;11.516;2022-11-15T04:40:03;2.27;95.75
68378;DHT22;55322;48.146;11.516;2022-11-15T04:42:29;2.31;95.57
68378;DHT22;55322;48.146;11.516;2022-11-15T04:44:54;2.29;95.88
68378;DHT22;55322;48.146;11.516;2022-11-15T04:47:20;2.37;95.76
68378;DHT22;55322;48.146;11.516;2022-11-15T04:49:46;2.25;95.80
68378;DHT22;55322;48.146;11.516;2022-11-15T04:52:11;2.20;95.80
68378;DHT22;55322;48.146;11.516;2022-11-15T04:54:36;2.24;95.87
68378;DHT22;55322;48.146;11.516;2022-11-15T04:57:02;2.22;95.51
68378;DHT22;55322;48.146;11.516;2022-11-15T04:59:27;2.21;95.26
68378;DHT22;55322;48.146;11.516;2022-11-15T05:01:52;2.17;95.65
68378;DHT22;55322;48.146;11.516;2022-11-15T05:04:18;2.17;96.12
68378;DHT22;55322;48.146;11.516;2022-11-15T05:06:50;2.17;95.73
68378;DHT22;55322;48.146;11.516;2022-11-15T05:09:17;2.15;95.20
68378;DHT22;55322;48.146;11.516;2022-11-15T05:11:43;2.13;95.17
68378;DHT22;55322;48.146;11.516;2022-11-15T05:14:08;2.14;95.09
68378;DHT22;55322;48.146;11.516;2022-11-15T05:16:34;2.05;95.34
68378;DHT22;55322;48.146;11.516;2022-11-15T05:19:00;2.01;96.02
68378;DHT22;55322;48.146;11.516;2022-11-15T05:21:25;2.03;96.30
68378;DHT22;55322;48.146;11.516;2022-11-15T05:23:50;2.07;96.34
68378;DHT22;55322;48.146;11.516;2022-11-15T05:26:17;2.05;95.95
68378;DHT22;55322;48.146;11.516;2022-11-15T05:28:43;2.11;95.90
68378;DHT22;55322;48.146;11.516;2022-11-15T05:31:14;2.15;96.11
68378;DHT22;55322;48.146;11.516;2022-11-15T05:33:40;2.14;95.58
68378;DHT22;55322;48.146;11.516;2022-11-15T05:38:32;2.07;95.19
68378;DHT22;55322;48.146;11.516;2022-11-15T05:40:59;2.05;95.24
68378;DHT22;55322;48.146;11.516;2022-11-15T05:43:25;2.01;94.93
68378;DHT22;55322;48.146;11.516;2022-11-15T05:45:50;1.98;95.00
68378;DHT22;55322;48.146;11.516;2022-11-15T05:48:16;1.88;95.61
68378;DHT22;55322;48.146;11.516;2022-11-15T05:50:43;1.87;95.57
68378;DHT22;55322;48.146;11.516;2022-11-15T05:53:11;1.88;95.57
68378;DHT22;55322;48.146;11.516;2022-11-15T05:55:38;1.81;95.95
68378;DHT22;55322;48.146;11.516;2022-11-15T05:58:04;1.84;96.06
68378;DHT22;55322;48.146;11.516;2022-11-15T06:00:30;2.17;94.74
68378;DHT22;55322;48.146;11.516;2022-11-15T06:02:55;2.21;95.20
68378;DHT22;55322;48.146;11.516;2022-11-15T06:05:20;2.18;95.51
68378;DHT22;55322;48.146;11.516;2022-11-15T06:07:46;2.11;94.99
68378;DHT22;55322;48.146;11.516;2022-11-15T06:10:11;2.03;94.89
68378;DHT22;55322;48.146;11.516;2022-11-15T06:12:37;2.03;95.03
68378;DHT22;55322;48.146;11.516;2022-11-15T06:15:02;1.95;95.43
68378;DHT22;55322;48.146;11.516;2022-11-15T06:17:28;1.91;95.51
68378;DHT22;55322;48.146;11.516;2022-11-15T06:19:54;1.84;95.50
68378;DHT22;55322;48.146;11.516;2022-11-15T06:22:19;1.88;95.70
68378;DHT22;55322;48.146;11.516;2022-11-15T06:24:44;1.85;95.49
68378;DHT22;55322;48.146;11.516;2022-11-15T06:27:13;1.90;95.37
68378;DHT22;55322;48.146;11.516;2022-11-15T06:29:38;1.90;95.25
68378;DHT22;55322;48.146;11.516;2022-11-15T06:32:04;1.94;95.21
68378;DHT22;55322;48.146;11.516;2022-11-15T06:34:29;1.98;95.25
68378;DHT22;55322;48.146;11.516;2022-11-15T06:36:54;2.03;95.39
68378;DHT22;55322;48.146;11.516;2022-11-15T06:39:20;1.98;95.57
68378;DHT22;55322;48.146;11.516;2022-11-15T06:41:45;2.00;95.68
68378;DHT22;55322;48.146;11.516;2022-11-15T06:44:10;2.01;95.52
68378;DHT22;55322;48.146;11.516;2022-11-15T06:46:36;2.01;95.66
68378;DHT22;55322;48.146;11.516;2022-11-15T06:49:01;2.08;95.60
68378;DHT22;55322;48.146;11.516;2022-11-15T06:51:26;2.15;95.71
68378;DHT22;55322;48.146;11.516;2022-11-15T06:53:52;2.17;95.99
68378;DHT22;55322;48.146;11.516;2022-11-15T06:56:17;2.22;95.67
68378;DHT22;55322;48.146;11.516;2022-11-15T06:58:42;2.25;95.54
68378;DHT22;55322;48.146;11.516;2022-11-15T07:01:10;2.24;95.35
68378;DHT22;55322;48.146;11.516;2022-11-15T07:03:40;2.24;95.37
68378;DHT22;55322;48.146;11.516;2022-11-15T07:06:06;2.25;95.92
68378;DHT22;55322;48.146;11.516;2022-11-15T07:08:32;2.29;95.67
68378;DHT22;55322;48.146;11.516;2022-11-15T07:10:59;2.35;95.61
68378;DHT22;55322;48.146;11.516;2022-11-15T07:13:26;2.35;95.43
68378;DHT22;55322;48.146;11.516;2022-11-15T07:15:51;2.41;95.27
68378;DHT22;55322;48.146;11.516;2022-11-15T07:18:17;2.41;95.20
68378;DHT22;55322;48.146;11.516;2022-11-15T07:20:42;2.46;95.41
68378;DHT22;55322;48.146;11.516;2022-11-15T07:23:07;2.55;95.30
68378;DHT22;55322;48.146;11.516;2022-11-15T07:25:33;2.68;95.34
68378;DHT22;55322;48.146;11.516;2022-11-15T07:27:59;2.86;95.28
68378;DHT22;55322;48.146;11.516;2022-11-15T07:30:25;3.10;94.84
68378;DHT22;55322;48.146;11.516;2022-11-15T07:32:59;3.92;92.47
68378;DHT22;55322;48.146;11.516;2022-11-15T07:35:26;4.91;89.96
68378;DHT22;55322;48.146;11.516;2022-11-15T07:38:00;5.52;85.16
68378;DHT22;55322;48.146;11.516;2022-11-15T07:40:27;6.00;81.10
68378;DHT22;55322;48.146;11.516;2022-11-15T07:42:59;6.75;76.55
68378;DHT22;55322;48.146;11.516;2022-11-15T07:45:24;7.12;77.58
68378;DHT22;55322;48.146;11.516;2022-11-15T07:47:53;7.46;76.17
68378;DHT22;55322;48.146;11.516;2022-11-15T07:50:18;7.55;77.34
68378;DHT22;55322;48.146;11.516;2022-11-15T07:52:44;7.73;76.69
68378;DHT22;55322;48.146;11.516;2022-11-15T07:55:10;8.18;73.55
68378;DHT22;55322;48.146;11.516;2022-11-15T07:57:35;8.38;69.90
68378;DHT22;55322;48.146;11.516;2022-11-15T08:00:01;9.00;68.40
68378;DHT22;55322;48.146;11.516;2022-11-15T08:02:26;8.76;68.54
68378;DHT22;55322;48.146;11.516;2022-11-15T08:04:51;9.37;65.08
68378;DHT22;55322;48.146;11.516;2022-11-15T08:07:17;10.35;63.21
68378;DHT22;55322;48.146;11.516;2022-11-15T08:09:42;10.18;66.26
68378;DHT22;55322;48.146;11.516;2022-11-15T08:12:08;10.89;61.75
68378;DHT22;55322;48.146;11.516;2022-11-15T08:14:33;10.65;65.03
68378;DHT22;55322;48.146;11.516;2022-11-15T08:16:58;11.91;58.18
68378;DHT22;55322;48.146;11.516;2022-11-15T08:19:23;12.53;58.00
68378;DHT22;55322;48.146;11.516;2022-11-15T08:21:49;13.21;52.62
68378;DHT22;55322;48.146;11.516;2022-11-15T08:24:14;12.94;51.46
68378;DHT22;55322;48.146;11.516;2022-11-15T08:26:40;13.44;50.78
68378;DHT22;55322;48.146;11.516;2022-11-15T08:29:06;13.68;48.18
68378;DHT22;55322;48.146;11.516;2022-11-15T08:31:34;14.09;47.73
68378;DHT22;55322;48.146;11.516;2022-11-15T08:34:00;13.47;49.10
68378;DHT22;55322;48.146;11.516;2022-11-15T08:36:25;14.25;47.05
68378;DHT22;55322;48.146;11.516;2022-11-15T08:38:50;15.12;49.21
68378;DHT22;55322;48.146;11.516;2022-11-15T08:41:31;15.79;45.74
68378;DHT22;55322;48.146;11.516;2022-11-15T08:43:57;16.34;46.64
68378;DHT22;55322;48.146;11.516;2022-11-15T08:46:22;16.51;44.61
68378;DHT22;55322;48.146;11.516;2022-11-15T08:48:48;16.87;44.59
68378;DHT22;55322;48.146;11.516;2022-11-15T08:51:13;16.98;44.08
68378;DHT22;55322;48.146;11.516;2022-11-15T08:53:38;17.07;45.12
68378;DHT22;55322;48.146;11.516;2022-11-15T08:56:07;17.11;44.40
68378;DHT22;55322;48.146;11.516;2022-11-15T08:58:34;16.81;43.53
68378;DHT22;55322;48.146;11.516;2022-11-15T09:00:59;17.58;40.37
68378;DHT22;55322;48.146;11.516;2022-11-15T09:03:25;17.61;40.89
68378;DHT22;55322;48.146;11.516;2022-11-15T09:06:00;17.62;41.18
68378;DHT22;55322;48.146;11.516;2022-11-15T09:08:29;17.21;38.58
68378;DHT22;55322;48.146;11.516;2022-11-15T09:10:55;17.56;41.36
68378;DHT22;55322;48.146;11.516;2022-11-15T09:13:20;17.46;38.14
68378;DHT22;55322;48.146;11.516;2022-11-15T09:15:45;17.28;39.57
68378;DHT22;55322;48.146;11.516;2022-11-15T09:18:11;17.55;39.62
68378;DHT22;55322;48.146;11.516;2022-11-15T09:20:36;17.39;40.76
68378;DHT22;55322;48.146;11.516;2022-11-15T09:23:02;17.04;40.60
68378;DHT22;55322;48.146;11.516;2022-11-15T09:25:29;16.78;41.89
68378;DHT22;55322;48.146;11.516;2022-11-15T09:27:54;16.03;41.14
68378;DHT22;55322;48.146;11.516;2022-11-15T09:30:20;15.88;42.34
68378;DHT22;55322;48.146;11.516;2022-11-15T09:32:45;15.75;42.26
68378;DHT22;55322;48.146;11.516;2022-11-15T09:35:10;16.12;42.28
68378;DHT22;55322;48.146;11.516;2022-11-15T09:37:36;16.27;41.53
68378;DHT22;55322;48.146;11.516;2022-11-15T09:40:01;16.16;43.89
68378;DHT22;55322;48.146;11.516;2022-11-15T09:45:13;15.83;45.88
68378;DHT22;55322;48.146;11.516;2022-11-15T09:48:18;16.47;43.83
68378;DHT22;55322;48.146;11.516;2022-11-15T09:50:51;16.68;43.08
68378;DHT22;55322;48.146;11.516;2022-11-15T09:53:36;16.88;41.30
68378;DHT22;55322;48.146;11.516;2022-11-15T09:56:15;16.92;43.03
68378;DHT22;55322;48.146;11.516;2022-11-15T10:02:16;15.68;45.55
68378;DHT22;55322;48.146;11.516;2022-11-15T10:04:45;15.89;44.14
68378;DHT22;55322;48.146;11.516;2022-11-15T10:07:23;15.98;45.17
68378;DHT22;55322;48.146;11.516;2022-11-15T10:12:22;16.09;41.79
68378;DHT22;55322;48.146;11.516;2022-11-15T10:14:49;15.56;43.82
68378;DHT22;55322;48.146;11.516;2022-11-15T10:17:21;16.49;42.17
68378;DHT22;55322;48.146;11.516;2022-11-15T10:20:03;17.25;40.77
68378;DHT22;55322;48.146;11.516;2022-11-15T10:22:43;16.61;40.73
68378;DHT22;55322;48.146;11.516;2022-11-15T10:27:35;16.29;42.39
68378;DHT22;55322;48.146;11.516;2022-11-15T10:30:01;16.03;41.86
68378;DHT22;55322;48.146;11.516;2022-11-15T10:32:29;15.34;44.16
68378;DHT22;55322;48.146;11.516;2022-11-15T10:34:55;15.89;43.16
68378;DHT22;55322;48.146;11.516;2022-11-15T10:37:28;16.26;42.70
68378;DHT22;55322;48.146;11.516;2022-11-15T10:40:21;16.14;45.25
68378;DHT22;55322;48.146;11.516;2022-11-15T10:42:47;17.26;42.55
68378;DHT22;55322;48.146;11.516;2022-11-15T10:45:28;16.20;41.93
68378;DHT22;55322;48.146;11.516;2022-11-15T10:50:41;16.71;43.16
68378;DHT22;55322;48.146;11.516;2022-11-15T10:55:41;17.07;42.58
68378;DHT22;55322;48.146;11.516;2022-11-15T10:58:42;16.40;40.87
68378;DHT22;55322;48.146;11.516;2022-11-15T11:01:18;16.84;40.78
68378;DHT22;55322;48.146;11.516;2022-11-15T11:03:46;16.54;42.40
68378;DHT22;55322;48.146;11.516;2022-11-15T11:06:23;16.64;43.80
68378;DHT22;55322;48.146;11.516;2022-11-15T11:09:00;16.84;41.10
68378;DHT22;55322;48.146;11.516;2022-11-15T11:11:45;16.50;41.62
68378;DHT22;55322;48.146;11.516;2022-11-15T11:14:12;16.23;41.09
68378;DHT22;55322;48.146;11.516;2022-11-15T11:16:50;16.50;41.00
68378;DHT22;55322;48.146;11.516;2022-11-15T11:29:49;17.14;41.39
68378;DHT22;55322;48.146;11.516;2022-11-15T11:35:20;16.83;41.54
68378;DHT22;55322;48.146;11.516;2022-11-15T11:40:28;15.90;44.50
68378;DHT22;55322;48.146;11.516;2022-11-15T11:43:09;16.27;42.92
68378;DHT22;55322;48.146;11.516;2022-11-15T11:45:53;16.24;44.26
68378;DHT22;55322;48.146;11.516;2022-11-15T11:50:52;16.37;45.06
68378;DHT22;55322;48.146;11.516;2022-11-15T11:53:32;16.16;42.03
68378;DHT22;55322;48.146;11.516;2022-11-15T11:56:06;16.56;42.29
68378;DHT22;55322;48.146;11.516;2022-11-15T11:58:41;16.41;41.68
68378;DHT22;55322;48.146;11.516;2022-11-15T12:01:22;16.21;42.34
68378;DHT22;55322;48.146;11.516;2022-11-15T12:06:33;14.77;45.67
68378;DHT22;55322;48.146;11.516;2022-11-15T12:09:14;14.84;46.32
68378;DHT22;55322;48.146;11.516;2022-11-15T12:11:51;14.90;45.36
68378;DHT22;55322;48.146;11.516;2022-11-15T12:16:55;14.66;47.24
68378;DHT22;55322;48.146;11.516;2022-11-15T12:19:20;14.77;46.14
68378;DHT22;55322;48.146;11.516;2022-11-15T12:22:24;15.03;48.59
68378;DHT22;55322;48.146;11.516;2022-11-15T12:24:58;14.79;45.21
68378;DHT22;55322;48.146;11.516;2022-11-15T12:27:49;14.73;45.88
68378;DHT22;55322;48.146;11.516;2022-11-15T12:30:18;14.55;46.28
68378;DHT22;55322;48.146;11.516;2022-11-15T12:33:00;14.61;46.95
68378;DHT22;55322;48.146;11.516;2022-11-15T12:35:38;14.77;46.11
68378;DHT22;55322;48.146;11.516;2022-11-15T12:38:09;14.94;47.44
68378;DHT22;55322;48.146;11.516;2022-11-15T12:40:37;15.03;44.57
68378;DHT22;55322;48.146;11.516;2022-11-15T12:45:43;15.17;44.42
68378;DHT22;55322;48.146;11.516;2022-11-15T12:50:54;14.97;45.06
68378;DHT22;55322;48.146;11.516;2022-11-15T13:04:26;14.71;45.16
68378;DHT22;55322;48.146;11.516;2022-11-15T13:06:57;14.70;45.39
68378;DHT22;55322;48.146;11.516;2022-11-15T13:12:11;14.77;45.34
68378;DHT22;55322;48.146;11.516;2022-11-15T13:14:51;14.64;45.48
68378;DHT22;55322;48.146;11.516;2022-11-15T13:17:33;14.77;46.53
68378;DHT22;55322;48.146;11.516;2022-11-15T13:33:25;14.77;47.71
68378;DHT22;55322;48.146;11.516;2022-11-15T13:35:55;14.63;50.08
68378;DHT22;55322;48.146;11.516;2022-11-15T13:40:50;14.25;49.58
68378;DHT22;55322;48.146;11.516;2022-11-15T13:43:26;14.28;51.46
68378;DHT22;55322;48.146;11.516;2022-11-15T13:46:24;14.26;50.89
68378;DHT22;55322;48.146;11.516;2022-11-15T13:49:09;13.90;53.82
68378;DHT22;55322;48.146;11.516;2022-11-15T13:51:49;13.83;54.06
68378;DHT22;55322;48.146;11.516;2022-11-15T13:54:29;13.92;50.84
68378;DHT22;55322;48.146;11.516;2022-11-15T13:57:01;13.94;50.72
68378;DHT22;55322;48.146;11.516;2022-11-15T13:59:31;13.65;54.06
68378;DHT22;55322;48.146;11.516;2022-11-15T14:02:01;13.50;53.64
68378;DHT22;55322;48.146;11.516;2022-11-15T14:04:28;13.61;52.99
68378;DHT22;55322;48.146;11.516;2022-11-15T14:06:58;13.78;51.49
68378;DHT22;55322;48.146;11.516;2022-11-15T14:09:39;13.79;51.77
68378;DHT22;55322;48.146;11.516;2022-11-15T14:14:52;13.24;56.40
68378;DHT22;55322;48.146;11.516;2022-11-15T14:17:33;13.17;55.52
68378;DHT22;55322;48.146;11.516;2022-11-15T14:19:59;13.10;57.24
68378;DHT22;55322;48.146;11.516;2022-11-15T14:22:27;12.96;58.79
68378;DHT22;55322;48.146;11.516;2022-11-15T14:28:07;12.73;61.00
68378;DHT22;55322;48.146;11.516;2022-11-15T14:30:30;12.70;60.66
68378;DHT22;55322;48.146;11.516;2022-11-15T14:32:55;12.64;60.89
68378;DHT22;55322;48.146;11.516;2022-11-15T14:35:22;12.42;63.20
68378;DHT22;55322;48.146;11.516;2022-11-15T14:37:48;12.28;62.52
68378;DHT22;55322;48.146;11.516;2022-11-15T14:40:19;12.12;63.82
68378;DHT22;55322;48.146;11.516;2022-11-15T14:42:46;12.05;63.85
68378;DHT22;55322;48.146;11.516;2022-11-15T14:45:16;11.97;65.16
68378;DHT22;55322;48.146;11.516;2022-11-15T14:47:42;11.82;67.18
68378;DHT22;55322;48.146;11.516;2022-11-15T14:50:16;11.54;68.49
68378;DHT22;55322;48.146;11.516;2022-11-15T14:52:41;11.37;69.09
68378;DHT22;55322;48.146;11.516;2022-11-15T14:55:26;11.26;70.22
68378;DHT22;55322;48.146;11.516;2022-11-15T14:57:52;11.17;70.73
68378;DHT22;55322;48.146;11.516;2022-11-15T15:00:18;11.12;70.75
68378;DHT22;55322;48.146;11.516;2022-11-15T15:02:46;10.89;71.85
68378;DHT22;55322;48.146;11.516;2022-11-15T15:05:17;10.88;73.06
68378;DHT22;55322;48.146;11.516;2022-11-15T15:07:43;10.72;72.82
68378;DHT22;55322;48.146;11.516;2022-11-15T15:10:09;10.66;73.12
68378;DHT22;55322;48.146;11.516;2022-11-15T15:12:35;10.62;74.48
68378;DHT22;55322;48.146;11.516;2022-11-15T15:15:00;10.55;74.56
68378;DHT22;55322;48.146;11.516;2022-11-15T15:17:25;10.38;75.97
68378;DHT22;55322;48.146;11.516;2022-11-15T15:19:51;10.25;75.95
68378;DHT22;55322;48.146;11.516;2022-11-15T15:22:18;10.14;76.20
68378;DHT22;55322;48.146;11.516;2022-11-15T15:24:44;10.08;76.64
68378;DHT22;55322;48.146;11.516;2022-11-15T15:27:10;9.99;77.15
68378;DHT22;55322;48.146;11.516;2022-11-15T15:29:36;9.90;77.42
68378;DHT22;55322;48.146;11.516;2022-11-15T15:32:02;9.83;77.47
68378;DHT22;55322;48.146;11.516;2022-11-15T15:34:27;9.73;77.65
68378;DHT22;55322;48.146;11.516;2022-11-15T15:39:43;9.54;78.59
68378;DHT22;55322;48.146;11.516;2022-11-15T15:42:08;9.47;79.59
68378;DHT22;55322;48.146;11.516;2022-11-15T15:44:33;9.37;79.84
68378;DHT22;55322;48.146;11.516;2022-11-15T15:46:59;9.32;79.69
68378;DHT22;55322;48.146;11.516;2022-11-15T15:49:24;9.29;79.84
68378;DHT22;55322;48.146;11.516;2022-11-15T15:51:49;9.32;79.96
68378;DHT22;55322;48.146;11.516;2022-11-15T15:54:15;9.26;80.06
68378;DHT22;55322;48.146;11.516;2022-11-15T15:56:40;9.10;80.70
68378;DHT22;55322;48.146;11.516;2022-11-15T15:59:05;9.06;80.93
68378;DHT22;55322;48.146;11.516;2022-11-15T16:01:30;9.03;80.37
68378;DHT22;55322;48.146;11.516;2022-11-15T16:03:56;8.89;81.83
68378;DHT22;55322;48.146;11.516;2022-11-15T16:06:40;8.85;81.56
68378;DHT22;55322;48.146;11.516;2022-11-15T16:09:14;8.83;82.02
68378;DHT22;55322;48.146;11.516;2022-11-15T16:11:41;8.85;81.78
68378;DHT22;55322;48.146;11.516;2022-11-15T16:14:07;8.86;81.79
68378;DHT22;55322;48.146;11.516;2022-11-15T16:16:34;8.78;82.04
68378;DHT22;55322;48.146;11.516;2022-11-15T16:18:59;8.68;82.07
68378;DHT22;55322;48.146;11.516;2022-11-15T16:21:26;8.62;82.91
68378;DHT22;55322;48.146;11.516;2022-11-15T16:23:52;8.54;83.45
68378;DHT22;55322;48.146;11.516;2022-11-15T16:26:23;8.51;83.53
68378;DHT22;55322;48.146;11.516;2022-11-15T16:28:50;8.47;83.59
68378;DHT22;55322;48.146;11.516;2022-11-15T16:31:15;8.45;84.17
68378;DHT22;55322;48.146;11.516;2022-11-15T16:33:43;8.42;84.53
68378;DHT22;55322;48.146;11.516;2022-11-15T16:36:25;8.44;84.54
68378;DHT22;55322;48.146;11.516;2022-11-15T16:38:51;8.41;83.50
68378;DHT22;55322;48.146;11.516;2022-11-15T16:41:17;8.38;84.03
68378;DHT22;55322;48.146;11.516;2022-11-15T16:43:47;8.33;85.36
68378;DHT22;55322;48.146;11.516;2022-11-15T16:46:21;8.25;85.53
68378;DHT22;55322;48.146;11.516;2022-11-15T16:48:47;8.23;85.92
68378;DHT22;55322;48.146;11.516;2022-11-15T16:51:13;8.24;86.02
68378;DHT22;55322;48.146;11.516;2022-11-15T16:53:38;8.18;86.54
68378;DHT22;55322;48.146;11.516;2022-11-15T16:56:17;8.20;86.33
68378;DHT22;55322;48.146;11.516;2022-11-15T16:58:43;8.20;85.79
68378;DHT22;55322;48.146;11.516;2022-11-15T17:01:16;8.11;86.95
68378;DHT22;55322;48.146;11.516;2022-11-15T17:03:42;8.15;86.38
68378;DHT22;55322;48.146;11.516;2022-11-15T17:06:08;8.17;86.39
68378;DHT22;55322;48.146;11.516;2022-11-15T17:08:34;8.13;86.02
68378;DHT22;55322;48.146;11.516;2022-11-15T17:10:59;8.03;85.95
68378;DHT22;55322;48.146;11.516;2022-11-15T17:13:24;7.94;86.78
68378;DHT22;55322;48.146;11.516;2022-11-15T17:15:50;7.90;86.73
68378;DHT22;55322;48.146;11.516;2022-11-15T17:18:15;7.84;86.47
68378;DHT22;55322;48.146;11.516;2022-11-15T17:20:40;7.77;86.70
68378;DHT22;55322;48.146;11.516;2022-11-15T17:23:11;7.76;87.15
68378;DHT22;55322;48.146;11.516;2022-11-15T17:25:38;7.73;87.19
68378;DHT22;55322;48.146;11.516;2022-11-15T17:28:04;7.69;87.44
68378;DHT22;55322;48.146;11.516;2022-11-15T17:30:30;7.65;87.40
68378;DHT22;55322;48.146;11.516;2022-11-15T17:32:55;7.60;87.46